Time;durP1;ratioP1;P1;durP2;ratioP2;P2;SDS_P1;SDS_P2;PMS_P1;PMS_P2;Temp;Humidity;BMP_temperature;BMP_pressure;BME280_temperature;BME280_humidity;BME280_pressure;Samples;Min_cycle;Max_cycle;Signal;HPM_P1;HPM_P2
2023/08/16 00:00:21;;;;;;;4.83;3.43;;;;;;;;;;5091999;28;20312;-63
2023/08/16 00:02:48;;;;;;;7.07;3.73;;;;;;;;;;5082732;28;20320;-63
2023/08/16 00:05:14;;;;;;;10.77;3.63;;;;;;;;;;5084736;28;20877;-63
2023/08/16 00:07:39;;;;;;;6.35;4.20;;;;;;;;;;5085670;28;20410;-63
2023/08/16 00:10:09;;;;;;;5.32;3.65;;;;;;;;;;5082829;28;20035;-62
2023/08/16 00:12:34;;;;;;;4.82;3.25;;;;;;;;;;5090334;28;20153;-62
2023/08/16 00:14:59;;;;;;;8.23;3.37;;;;;;;;;;5083421;28;20060;-62
2023/08/16 00:17:25;;;;;;;5.93;3.40;;;;;;;;;;5074549;28;20267;-62
2023/08/16 00:19:50;;;;;;;4.68;3.60;;;;;;;;;;5074147;28;20289;-62
2023/08/16 00:22:15;;;;;;;7.07;3.87;;;;;;;;;;5078242;28;20027;-62
2023/08/16 00:24:41;;;;;;;6.30;3.60;;;;;;;;;;5083288;28;20274;-61
2023/08/16 00:27:06;;;;;;;8.37;4.67;;;;;;;;;;5076341;28;20266;-62
2023/08/16 00:29:32;;;;;;;5.80;4.15;;;;;;;;;;5083007;28;20302;-63
2023/08/16 00:32:00;;;;;;;7.85;5.03;;;;;;;;;;5090681;28;20020;-62
2023/08/16 00:34:26;;;;;;;7.07;4.80;;;;;;;;;;5092179;28;20031;-61
2023/08/16 00:36:51;;;;;;;6.43;3.90;;;;;;;;;;5091451;28;20422;-63
2023/08/16 00:39:16;;;;;;;5.87;4.27;;;;;;;;;;5092700;28;20039;-63
2023/08/16 00:41:41;;;;;;;6.37;4.87;;;;;;;;;;5080118;28;20302;-62
2023/08/16 00:44:06;;;;;;;6.53;4.80;;;;;;;;;;5087330;28;20274;-63
2023/08/16 00:46:32;;;;;;;6.85;4.47;;;;;;;;;;5076719;28;20028;-62
2023/08/16 00:48:58;;;;;;;5.70;4.35;;;;;;;;;;5074292;28;20387;-63
2023/08/16 00:51:23;;;;;;;6.70;4.20;;;;;;;;;;5085448;28;20020;-63
2023/08/16 00:53:48;;;;;;;7.60;5.38;;;;;;;;;;5073226;28;20479;-63
2023/08/16 00:56:14;;;;;;;6.25;4.25;;;;;;;;;;5081195;28;20020;-63
2023/08/16 00:58:40;;;;;;;8.02;4.53;;;;;;;;;;5087329;28;20027;-63
2023/08/16 01:01:05;;;;;;;9.80;4.32;;;;;;;;;;5092392;28;20012;-63
2023/08/16 01:03:31;;;;;;;9.13;5.38;;;;;;;;;;5091257;28;20112;-63
2023/08/16 01:05:56;;;;;;;6.80;4.78;;;;;;;;;;5091703;28;20052;-63
2023/08/16 01:08:22;;;;;;;8.03;5.43;;;;;;;;;;5092781;28;20085;-63
2023/08/16 01:10:47;;;;;;;8.98;5.43;;;;;;;;;;5076351;28;20291;-62
2023/08/16 01:13:18;;;;;;;7.90;5.30;;;;;;;;;;5073606;28;20024;-62
2023/08/16 01:15:47;;;;;;;12.82;6.40;;;;;;;;;;5077420;28;20039;-63
2023/08/16 01:18:13;;;;;;;9.07;6.00;;;;;;;;;;5081354;28;20028;-63
2023/08/16 01:20:38;;;;;;;7.50;5.35;;;;;;;;;;5083957;28;20418;-63
2023/08/16 01:23:03;;;;;;;6.75;5.38;;;;;;;;;;5079661;28;20059;-63
2023/08/16 01:25:47;;;;;;;6.95;5.05;;;;;;;;;;5091618;28;20103;-63
2023/08/16 01:28:13;;;;;;;6.27;4.57;;;;;;;;;;5079436;28;20463;-63
2023/08/16 01:30:40;;;;;;;6.47;5.13;;;;;;;;;;5085095;28;20020;-63
2023/08/16 01:33:06;;;;;;;9.23;4.32;;;;;;;;;;5078734;28;20032;-63
2023/08/16 01:35:32;;;;;;;5.57;3.80;;;;;;;;;;5083449;28;20028;-63
2023/08/16 01:37:57;;;;;;;6.68;4.55;;;;;;;;;;5075323;28;20051;-63
2023/08/16 01:40:22;;;;;;;7.82;5.50;;;;;;;;;;5077739;28;20089;-63
2023/08/16 01:42:49;;;;;;;7.45;5.15;;;;;;;;;;5074819;28;20395;-62
2023/08/16 01:45:16;;;;;;;7.05;5.07;;;;;;;;;;5076547;28;20020;-62
2023/08/16 01:47:42;;;;;;;7.22;5.07;;;;;;;;;;5071946;28;20052;-62
2023/08/16 01:50:07;;;;;;;7.50;5.10;;;;;;;;;;5073633;28;20367;-62
2023/08/16 01:52:33;;;;;;;7.93;4.95;;;;;;;;;;5081672;28;20032;-62
2023/08/16 01:54:58;;;;;;;6.80;4.55;;;;;;;;;;5068386;28;20021;-62
2023/08/16 01:57:23;;;;;;;7.30;4.57;;;;;;;;;;5045382;28;20023;-62
2023/08/16 01:59:49;;;;;;;8.07;3.97;;;;;;;;;;5046934;28;20294;-62
2023/08/16 02:02:14;;;;;;;8.63;4.90;;;;;;;;;;5071378;28;20305;-62
2023/08/16 02:04:39;;;;;;;8.93;5.00;;;;;;;;;;5051317;28;21052;-62
2023/08/16 02:07:04;;;;;;;7.80;5.40;;;;;;;;;;5046529;28;21240;-62
2023/08/16 02:09:30;;;;;;;7.97;5.30;;;;;;;;;;5039526;28;21110;-63
2023/08/16 02:11:55;;;;;;;7.57;5.57;;;;;;;;;;5038858;28;20054;-63
2023/08/16 02:14:20;;;;;;;7.18;4.75;;;;;;;;;;5042075;28;20270;-63
2023/08/16 02:16:45;;;;;;;7.50;5.47;;;;;;;;;;5041376;28;20062;-63
2023/08/16 02:19:11;;;;;;;5.28;4.40;;;;;;;;;;5038034;28;21216;-63
2023/08/16 02:21:36;;;;;;;7.90;4.83;;;;;;;;;;5027701;28;20040;-63
2023/08/16 02:24:03;;;;;;;6.90;4.90;;;;;;;;;;5043217;28;21213;-63
2023/08/16 02:26:28;;;;;;;5.45;4.63;;;;;;;;;;5073074;28;20729;-63
2023/08/16 02:28:53;;;;;;;7.57;4.35;;;;;;;;;;5071275;28;20095;-63
2023/08/16 02:31:18;;;;;;;6.37;4.73;;;;;;;;;;5078015;28;20382;-63
2023/08/16 02:33:44;;;;;;;8.50;5.33;;;;;;;;;;5090734;28;20270;-63
2023/08/16 02:36:09;;;;;;;6.10;4.47;;;;;;;;;;5090377;28;20266;-63
2023/08/16 02:38:34;;;;;;;8.33;5.67;;;;;;;;;;5091063;28;20301;-63
2023/08/16 02:41:00;;;;;;;10.40;5.10;;;;;;;;;;5088929;28;20312;-63
2023/08/16 02:43:25;;;;;;;12.73;5.18;;;;;;;;;;5090990;28;20394;-63
2023/08/16 02:45:50;;;;;;;9.20;5.40;;;;;;;;;;5077079;28;20036;-63
2023/08/16 02:48:15;;;;;;;6.93;4.55;;;;;;;;;;5089997;28;20799;-63
2023/08/16 02:50:42;;;;;;;6.60;4.60;;;;;;;;;;5086154;28;20088;-63
2023/08/16 02:53:07;;;;;;;8.35;5.60;;;;;;;;;;5080702;28;20331;-64
2023/08/16 02:55:32;;;;;;;7.60;4.73;;;;;;;;;;5084158;28;20017;-62
2023/08/16 02:57:57;;;;;;;5.53;4.33;;;;;;;;;;5088717;28;20290;-62
2023/08/16 03:00:23;;;;;;;6.70;4.60;;;;;;;;;;5083877;28;20308;-63
2023/08/16 03:02:48;;;;;;;8.68;5.50;;;;;;;;;;5086957;28;20765;-62
2023/08/16 03:05:13;;;;;;;11.60;5.82;;;;;;;;;;5074918;28;20526;-62
2023/08/16 03:07:39;;;;;;;7.28;5.78;;;;;;;;;;5080018;28;20036;-62
2023/08/16 03:10:04;;;;;;;8.18;6.07;;;;;;;;;;5075947;28;20096;-62
2023/08/16 03:12:30;;;;;;;7.32;6.10;;;;;;;;;;5085247;28;20055;-62
2023/08/16 03:14:55;;;;;;;8.75;6.05;;;;;;;;;;5089420;28;20012;-63
2023/08/16 03:17:20;;;;;;;7.88;6.22;;;;;;;;;;5088763;28;20112;-63
2023/08/16 03:19:45;;;;;;;8.80;5.80;;;;;;;;;;5071504;28;20798;-64
2023/08/16 03:22:11;;;;;;;6.57;5.00;;;;;;;;;;5028763;28;20029;-64
2023/08/16 03:24:36;;;;;;;8.00;6.60;;;;;;;;;;5027513;28;20032;-64
2023/08/16 03:27:01;;;;;;;7.47;5.73;;;;;;;;;;5050561;28;20056;-63
2023/08/16 03:29:26;;;;;;;10.95;6.53;;;;;;;;;;5074605;28;20633;-64
2023/08/16 03:31:52;;;;;;;7.93;6.20;;;;;;;;;;5073729;28;20031;-62
2023/08/16 03:34:17;;;;;;;7.93;6.10;;;;;;;;;;5075030;28;20270;-62
2023/08/16 03:36:42;;;;;;;6.60;5.50;;;;;;;;;;5073232;28;20679;-62
2023/08/16 03:39:07;;;;;;;7.60;6.60;;;;;;;;;;5073965;28;20467;-63
2023/08/16 03:41:33;;;;;;;10.37;6.30;;;;;;;;;;5074089;28;20025;-62
2023/08/16 03:43:59;;;;;;;7.68;5.47;;;;;;;;;;5046799;28;20286;-63
2023/08/16 03:46:24;;;;;;;9.57;7.45;;;;;;;;;;5043533;28;20421;-62
2023/08/16 03:48:49;;;;;;;9.10;7.60;;;;;;;;;;5074039;28;20028;-63
2023/08/16 03:51:15;;;;;;;10.73;7.00;;;;;;;;;;5081414;28;20746;-63
2023/08/16 03:53:40;;;;;;;10.23;7.50;;;;;;;;;;5070287;28;20297;-63
2023/08/16 03:56:05;;;;;;;8.87;7.07;;;;;;;;;;5079039;28;20275;-62
2023/08/16 03:58:30;;;;;;;8.67;7.70;;;;;;;;;;5069938;28;20400;-63
2023/08/16 04:00:55;;;;;;;8.10;6.95;;;;;;;;;;5077570;28;20275;-63
2023/08/16 04:03:21;;;;;;;9.33;7.27;;;;;;;;;;5083540;28;20028;-62
2023/08/16 04:05:46;;;;;;;10.93;7.68;;;;;;;;;;5080991;28;20359;-63
2023/08/16 04:08:12;;;;;;;10.52;7.07;;;;;;;;;;5070019;28;20024;-63
2023/08/16 04:10:37;;;;;;;9.88;8.13;;;;;;;;;;5088025;28;20493;-63
2023/08/16 04:13:03;;;;;;;10.07;7.18;;;;;;;;;;5092561;28;20031;-63
2023/08/16 04:15:28;;;;;;;8.63;6.95;;;;;;;;;;5091958;28;20375;-63
2023/08/16 04:17:54;;;;;;;9.52;7.35;;;;;;;;;;5051893;28;20843;-63
2023/08/16 04:20:19;;;;;;;8.80;6.90;;;;;;;;;;5044269;28;20024;-63
2023/08/16 04:22:45;;;;;;;9.15;7.00;;;;;;;;;;5042445;28;20471;-63
2023/08/16 04:25:10;;;;;;;9.27;7.30;;;;;;;;;;5079108;28;20077;-63
2023/08/16 04:27:35;;;;;;;8.07;7.17;;;;;;;;;;5082044;28;20467;-63
2023/08/16 04:30:01;;;;;;;9.32;7.07;;;;;;;;;;5076822;28;20331;-63
2023/08/16 04:32:26;;;;;;;9.20;7.33;;;;;;;;;;5083260;28;20016;-63
2023/08/16 04:34:51;;;;;;;9.73;6.93;;;;;;;;;;5077694;28;20633;-63
2023/08/16 04:37:16;;;;;;;8.00;7.20;;;;;;;;;;5078500;28;20132;-63
2023/08/16 04:39:42;;;;;;;9.48;6.63;;;;;;;;;;5071939;28;20298;-63
2023/08/16 04:42:07;;;;;;;10.53;7.60;;;;;;;;;;5093036;28;20060;-63
2023/08/16 04:44:32;;;;;;;6.90;6.20;;;;;;;;;;5072116;28;20297;-63
2023/08/16 04:46:57;;;;;;;6.63;5.28;;;;;;;;;;5076105;28;20897;-63
2023/08/16 04:49:25;;;;;;;7.10;5.40;;;;;;;;;;5066914;28;20024;-63
2023/08/16 04:51:50;;;;;;;7.22;4.95;;;;;;;;;;5089494;28;20266;-63
2023/08/16 04:54:15;;;;;;;8.32;7.15;;;;;;;;;;5084659;28;20028;-63
2023/08/16 04:56:41;;;;;;;10.93;9.00;;;;;;;;;;5084295;28;20052;-63
2023/08/16 04:59:06;;;;;;;10.40;8.70;;;;;;;;;;5081816;28;20278;-64
2023/08/16 05:01:31;;;;;;;8.80;7.90;;;;;;;;;;5053637;28;20769;-64
2023/08/16 05:03:56;;;;;;;10.57;9.47;;;;;;;;;;5090289;28;20598;-63
2023/08/16 05:06:22;;;;;;;10.73;9.40;;;;;;;;;;5082706;28;20290;-64
2023/08/16 05:08:47;;;;;;;10.95;9.30;;;;;;;;;;5076536;28;20031;-64
2023/08/16 05:11:12;;;;;;;11.53;8.83;;;;;;;;;;5077229;28;20581;-64
2023/08/16 05:13:37;;;;;;;11.43;9.32;;;;;;;;;;5092185;28;20278;-63
2023/08/16 05:16:03;;;;;;;12.15;9.68;;;;;;;;;;5092754;28;20420;-63
2023/08/16 05:18:28;;;;;;;11.05;8.40;;;;;;;;;;5091905;28;20077;-63
2023/08/16 05:20:58;;;;;;;10.35;9.35;;;;;;;;;;5090468;28;20080;-64
2023/08/16 05:23:24;;;;;;;11.02;9.60;;;;;;;;;;5091590;28;20036;-63
2023/08/16 05:25:49;;;;;;;11.07;9.02;;;;;;;;;;5074001;28;20138;-64
2023/08/16 05:28:14;;;;;;;10.70;9.60;;;;;;;;;;5081425;28;20073;-64
2023/08/16 05:30:39;;;;;;;13.43;8.90;;;;;;;;;;5077990;28;20270;-64
2023/08/16 05:33:05;;;;;;;9.15;8.27;;;;;;;;;;5083349;28;20269;-63
2023/08/16 05:35:33;;;;;;;9.40;8.47;;;;;;;;;;5081630;28;20103;-63
2023/08/16 05:37:59;;;;;;;11.15;10.02;;;;;;;;;;5081722;28;20290;-63
2023/08/16 05:40:24;;;;;;;11.20;10.00;;;;;;;;;;5076660;28;20020;-63
2023/08/16 05:42:49;;;;;;;15.23;11.30;;;;;;;;;;5079721;28;20111;-64
2023/08/16 05:45:14;;;;;;;11.00;9.90;;;;;;;;;;5072021;28;20293;-64
2023/08/16 05:47:40;;;;;;;14.05;10.20;;;;;;;;;;5080221;28;20028;-63
2023/08/16 05:50:05;;;;;;;11.07;9.98;;;;;;;;;;5072214;28;20024;-64
2023/08/16 05:52:31;;;;;;;14.43;10.25;;;;;;;;;;5074728;28;20526;-64
2023/08/16 05:54:56;;;;;;;12.63;10.73;;;;;;;;;;5078483;28;20032;-63
2023/08/16 05:57:21;;;;;;;12.60;10.77;;;;;;;;;;5083733;28;20056;-64
2023/08/16 05:59:46;;;;;;;13.33;10.30;;;;;;;;;;5079988;28;20766;-63
2023/08/16 06:02:12;;;;;;;12.05;10.55;;;;;;;;;;5083693;28;20648;-64
2023/08/16 06:04:37;;;;;;;11.60;10.40;;;;;;;;;;5086350;28;20096;-63
2023/08/16 06:07:02;;;;;;;11.10;10.00;;;;;;;;;;5089969;28;20278;-63
2023/08/16 06:09:28;;;;;;;9.80;8.90;;;;;;;;;;5080124;28;20275;-63
2023/08/16 06:11:53;;;;;;;10.75;9.65;;;;;;;;;;5082661;28;20156;-64
2023/08/16 06:14:18;;;;;;;10.52;8.73;;;;;;;;;;5090228;28;20020;-63
2023/08/16 06:16:44;;;;;;;10.03;9.00;;;;;;;;;;5087576;28;20042;-63
2023/08/16 06:19:10;;;;;;;9.45;8.25;;;;;;;;;;5077803;28;20373;-63
2023/08/16 06:21:36;;;;;;;10.52;9.05;;;;;;;;;;5081021;28;20074;-64
2023/08/16 06:24:02;;;;;;;9.40;8.50;;;;;;;;;;5073077;28;20408;-64
2023/08/16 06:26:27;;;;;;;8.88;7.25;;;;;;;;;;5080658;28;20028;-63
2023/08/16 06:28:52;;;;;;;9.15;8.30;;;;;;;;;;5073636;28;20364;-64
2023/08/16 06:31:18;;;;;;;9.52;8.45;;;;;;;;;;5072356;28;20024;-63
2023/08/16 06:33:43;;;;;;;10.95;8.85;;;;;;;;;;5078507;28;20029;-63
2023/08/16 06:36:09;;;;;;;10.27;8.33;;;;;;;;;;5082569;28;20035;-63
2023/08/16 06:38:34;;;;;;;11.75;8.75;;;;;;;;;;5086733;28;20285;-63
2023/08/16 06:40:59;;;;;;;13.38;8.25;;;;;;;;;;5080718;28;20016;-63
2023/08/16 06:43:24;;;;;;;9.93;8.20;;;;;;;;;;5089979;28;20032;-63
2023/08/16 06:45:50;;;;;;;10.37;7.43;;;;;;;;;;5090387;28;20289;-63
2023/08/16 06:48:15;;;;;;;9.53;8.53;;;;;;;;;;5088843;28;20278;-63
2023/08/16 06:50:40;;;;;;;9.50;8.60;;;;;;;;;;5075768;28;20315;-63
2023/08/16 06:53:05;;;;;;;8.30;7.50;;;;;;;;;;5065042;28;20031;-63
2023/08/16 06:55:31;;;;;;;9.57;7.93;;;;;;;;;;5041438;28;20389;-61
2023/08/16 06:57:56;;;;;;;8.73;7.82;;;;;;;;;;5053612;28;20027;-62
2023/08/16 07:00:21;;;;;;;9.63;8.63;;;;;;;;;;5081489;28;20023;-63
2023/08/16 07:02:47;;;;;;;8.98;7.45;;;;;;;;;;5079321;28;20414;-63
2023/08/16 07:05:13;;;;;;;9.32;7.82;;;;;;;;;;5077036;28;20024;-63
2023/08/16 07:07:38;;;;;;;10.37;7.77;;;;;;;;;;5084389;28;20103;-63
2023/08/16 07:10:04;;;;;;;8.88;7.68;;;;;;;;;;5074704;28;20321;-63
2023/08/16 07:12:29;;;;;;;8.27;7.43;;;;;;;;;;5086959;28;20032;-64
2023/08/16 07:14:55;;;;;;;9.30;7.78;;;;;;;;;;5090900;28;20173;-63
2023/08/16 07:17:21;;;;;;;8.75;7.55;;;;;;;;;;5089143;28;20055;-64
2023/08/16 07:19:48;;;;;;;9.15;7.15;;;;;;;;;;5052956;28;20034;-64
2023/08/16 07:22:13;;;;;;;7.43;6.55;;;;;;;;;;5064284;28;20095;-63
2023/08/16 07:24:38;;;;;;;7.47;5.80;;;;;;;;;;5067134;28;20028;-63
2023/08/16 07:27:04;;;;;;;7.07;6.37;;;;;;;;;;5067042;28;20029;-63
2023/08/16 07:29:29;;;;;;;8.10;5.90;;;;;;;;;;5089378;28;20406;-63
2023/08/16 07:31:54;;;;;;;7.50;6.20;;;;;;;;;;5078127;28;20025;-62
2023/08/16 07:34:19;;;;;;;9.15;6.80;;;;;;;;;;5070477;28;20266;-62
2023/08/16 07:36:45;;;;;;;9.02;6.05;;;;;;;;;;5064259;28;20056;-63
2023/08/16 07:39:11;;;;;;;8.25;6.28;;;;;;;;;;5082318;28;20033;-63
2023/08/16 07:41:36;;;;;;;7.43;5.25;;;;;;;;;;5072097;28;20104;-62
2023/08/16 07:44:01;;;;;;;7.07;4.97;;;;;;;;;;5069533;28;20473;-63
2023/08/16 07:46:27;;;;;;;7.20;4.68;;;;;;;;;;5073962;28;20025;-63
2023/08/16 07:48:52;;;;;;;10.67;5.73;;;;;;;;;;5076230;28;20110;-63
2023/08/16 07:51:17;;;;;;;6.77;5.30;;;;;;;;;;5088099;28;20311;-62
2023/08/16 07:53:42;;;;;;;7.20;6.00;;;;;;;;;;5086779;28;20280;-62
2023/08/16 07:56:08;;;;;;;6.90;5.40;;;;;;;;;;5074462;28;20290;-63
2023/08/16 07:58:33;;;;;;;6.10;5.10;;;;;;;;;;5075973;28;20865;-63
2023/08/16 08:00:58;;;;;;;7.40;5.27;;;;;;;;;;5074569;28;20080;-63
2023/08/16 08:03:23;;;;;;;5.40;4.80;;;;;;;;;;5075331;28;20372;-63
2023/08/16 08:05:49;;;;;;;6.22;4.95;;;;;;;;;;5030875;28;20287;-63
2023/08/16 08:08:14;;;;;;;8.32;5.25;;;;;;;;;;5033974;28;20051;-63
2023/08/16 08:10:45;;;;;;;7.45;5.70;;;;;;;;;;5034079;28;20031;-63
2023/08/16 08:13:11;;;;;;;7.90;5.30;;;;;;;;;;5038722;28;20023;-63
2023/08/16 08:15:36;;;;;;;9.68;5.25;;;;;;;;;;5044774;28;20869;-63
2023/08/16 08:18:02;;;;;;;9.20;5.78;;;;;;;;;;5045812;28;20028;-63
2023/08/16 08:20:27;;;;;;;12.20;5.80;;;;;;;;;;5045240;28;20047;-63
2023/08/16 08:22:52;;;;;;;7.35;6.13;;;;;;;;;;5091760;28;20104;-63
2023/08/16 08:25:18;;;;;;;8.37;5.90;;;;;;;;;;5082363;28;20934;-63
2023/08/16 08:27:43;;;;;;;7.03;5.57;;;;;;;;;;5045822;28;21078;-63
2023/08/16 08:30:09;;;;;;;6.85;5.70;;;;;;;;;;5064772;28;20417;-63
2023/08/16 08:32:34;;;;;;;11.32;6.20;;;;;;;;;;5092705;28;20028;-63
2023/08/16 08:34:59;;;;;;;7.03;5.95;;;;;;;;;;5087696;28;20024;-63
2023/08/16 08:37:25;;;;;;;6.68;5.60;;;;;;;;;;5073158;28;20024;-62
2023/08/16 08:39:50;;;;;;;7.32;5.82;;;;;;;;;;5073011;28;20506;-63
2023/08/16 08:42:16;;;;;;;6.82;5.93;;;;;;;;;;5079790;28;20029;-63
2023/08/16 08:44:42;;;;;;;7.35;4.90;;;;;;;;;;5074007;28;20024;-63
2023/08/16 08:47:08;;;;;;;7.68;5.18;;;;;;;;;;5086817;28;20379;-63
2023/08/16 08:49:36;;;;;;;6.97;5.88;;;;;;;;;;5087402;28;20469;-63
2023/08/16 08:52:03;;;;;;;7.57;5.13;;;;;;;;;;5079960;28;20043;-62
2023/08/16 08:54:28;;;;;;;6.40;4.97;;;;;;;;;;5093398;28;20050;-63
2023/08/16 08:56:54;;;;;;;8.68;5.72;;;;;;;;;;5090199;28;20036;-63
2023/08/16 08:59:20;;;;;;;6.88;4.90;;;;;;;;;;5081264;28;20032;-63
2023/08/16 09:01:45;;;;;;;6.70;3.90;;;;;;;;;;5091866;28;20473;-63
2023/08/16 09:04:12;;;;;;;8.60;4.43;;;;;;;;;;5087792;28;20028;-63
2023/08/16 09:06:38;;;;;;;10.82;6.13;;;;;;;;;;5083921;28;20047;-63
2023/08/16 09:09:04;;;;;;;7.30;4.57;;;;;;;;;;5069681;28;20038;-63
2023/08/16 09:11:30;;;;;;;7.07;4.78;;;;;;;;;;5072400;28;20024;-63
2023/08/16 09:13:55;;;;;;;6.47;5.00;;;;;;;;;;5073189;28;20043;-63
2023/08/16 09:16:20;;;;;;;7.28;4.78;;;;;;;;;;5078438;28;20133;-63
2023/08/16 09:18:49;;;;;;;8.10;5.47;;;;;;;;;;5078514;28;20425;-63
2023/08/16 09:21:16;;;;;;;6.80;5.28;;;;;;;;;;5081741;28;20103;-63
2023/08/16 09:23:41;;;;;;;6.95;5.63;;;;;;;;;;5077112;28;20028;-63
2023/08/16 09:26:13;;;;;;;6.72;5.28;;;;;;;;;;5086752;28;20483;-63
2023/08/16 09:28:38;;;;;;;7.90;5.65;;;;;;;;;;5082721;28;20055;-63
2023/08/16 09:31:05;;;;;;;5.37;4.73;;;;;;;;;;5087955;28;20056;-63
2023/08/16 09:33:33;;;;;;;7.15;5.68;;;;;;;;;;5084533;28;20823;-63
2023/08/16 09:35:58;;;;;;;7.68;5.63;;;;;;;;;;5085950;28;20373;-63
2023/08/16 09:38:24;;;;;;;6.88;4.80;;;;;;;;;;5087296;28;20021;-63
2023/08/16 09:40:49;;;;;;;8.02;5.90;;;;;;;;;;5048561;28;20032;-63
2023/08/16 09:43:15;;;;;;;6.78;5.10;;;;;;;;;;5056153;28;20031;-63
2023/08/16 09:45:41;;;;;;;6.75;5.95;;;;;;;;;;5074453;28;20047;-63
2023/08/16 09:48:08;;;;;;;7.00;5.30;;;;;;;;;;5076535;28;20463;-62
2023/08/16 09:50:34;;;;;;;7.07;5.40;;;;;;;;;;5085890;28;20104;-63
2023/08/16 09:53:01;;;;;;;7.60;5.72;;;;;;;;;;5082033;28;20107;-63
2023/08/16 09:55:28;;;;;;;6.38;5.13;;;;;;;;;;5090553;28;20028;-63
2023/08/16 09:57:55;;;;;;;6.05;4.57;;;;;;;;;;5090980;28;20051;-66
2023/08/16 10:00:23;;;;;;;6.05;4.18;;;;;;;;;;5076015;28;20024;-63
2023/08/16 10:02:50;;;;;;;6.60;4.63;;;;;;;;;;5086292;28;20040;-62
2023/08/16 10:05:16;;;;;;;10.00;4.63;;;;;;;;;;5091464;28;20069;-62
2023/08/16 10:07:41;;;;;;;6.40;4.80;;;;;;;;;;5086366;28;20054;-63
2023/08/16 10:10:09;;;;;;;8.47;5.17;;;;;;;;;;5077324;28;20091;-63
2023/08/16 10:12:35;;;;;;;6.43;4.63;;;;;;;;;;5080350;28;20275;-63
2023/08/16 10:15:00;;;;;;;7.45;3.92;;;;;;;;;;5082230;28;20095;-63
2023/08/16 10:17:27;;;;;;;5.93;4.03;;;;;;;;;;5090339;28;20016;-63
2023/08/16 10:19:58;;;;;;;8.18;4.22;;;;;;;;;;5078295;28;20489;-62
2023/08/16 10:22:26;;;;;;;6.82;5.10;;;;;;;;;;5073105;28;20094;-63
2023/08/16 10:24:52;;;;;;;8.50;4.53;;;;;;;;;;5072858;28;20081;-62
2023/08/16 10:27:18;;;;;;;7.35;4.70;;;;;;;;;;5072530;28;20096;-62
2023/08/16 10:29:45;;;;;;;7.80;4.25;;;;;;;;;;5087017;28;20111;-62
2023/08/16 10:32:12;;;;;;;10.93;4.35;;;;;;;;;;5085726;28;20073;-62
2023/08/16 10:34:38;;;;;;;4.57;3.72;;;;;;;;;;5077943;28;20029;-62
2023/08/16 10:37:04;;;;;;;7.07;4.70;;;;;;;;;;5079457;28;20031;-62
2023/08/16 10:39:30;;;;;;;4.78;3.88;;;;;;;;;;5079842;28;20024;-62
2023/08/16 10:42:02;;;;;;;8.50;4.53;;;;;;;;;;5072337;28;20040;-63
2023/08/16 10:44:27;;;;;;;7.10;4.60;;;;;;;;;;5076147;28;20091;-62
2023/08/16 10:46:52;;;;;;;7.43;4.90;;;;;;;;;;5072442;28;20021;-62
2023/08/16 10:49:20;;;;;;;6.15;4.00;;;;;;;;;;5078697;28;20274;-63
2023/08/16 10:51:53;;;;;;;6.22;3.97;;;;;;;;;;5091194;28;20028;-63
2023/08/16 10:54:30;;;;;;;5.35;3.83;;;;;;;;;;5087657;28;20479;-62
2023/08/16 10:57:00;;;;;;;6.75;4.53;;;;;;;;;;5086618;28;20024;-62
2023/08/16 10:59:36;;;;;;;5.63;4.07;;;;;;;;;;5085069;28;20024;-62
2023/08/16 11:02:08;;;;;;;7.60;4.80;;;;;;;;;;5086494;28;20044;-62
2023/08/16 11:04:37;;;;;;;7.30;4.43;;;;;;;;;;5080333;28;20391;-62
2023/08/16 11:07:05;;;;;;;6.10;4.40;;;;;;;;;;5086046;28;20031;-62
2023/08/16 11:09:30;;;;;;;6.32;4.90;;;;;;;;;;5082357;28;20070;-63
2023/08/16 11:11:59;;;;;;;6.68;4.07;;;;;;;;;;5085181;28;20048;-63
2023/08/16 11:14:25;;;;;;;5.15;3.95;;;;;;;;;;5089200;28;20467;-63
2023/08/16 11:16:53;;;;;;;6.63;4.73;;;;;;;;;;5085985;28;20035;-62
2023/08/16 11:19:20;;;;;;;4.68;3.75;;;;;;;;;;5088662;28;20633;-63
2023/08/16 11:21:47;;;;;;;6.22;4.70;;;;;;;;;;5091226;28;20016;-63
2023/08/16 11:24:12;;;;;;;5.18;4.25;;;;;;;;;;5092821;28;20144;-64
2023/08/16 11:26:38;;;;;;;6.82;4.47;;;;;;;;;;5089405;28;20112;-62
2023/08/16 11:29:05;;;;;;;5.95;4.43;;;;;;;;;;5086169;28;20028;-63
2023/08/16 11:31:30;;;;;;;5.22;3.83;;;;;;;;;;5054745;28;20028;-63
2023/08/16 11:33:55;;;;;;;5.40;3.75;;;;;;;;;;5037543;28;20039;-63
2023/08/16 11:36:21;;;;;;;6.40;5.03;;;;;;;;;;5090955;28;20368;-64
2023/08/16 11:38:49;;;;;;;4.07;3.00;;;;;;;;;;5074631;28;20294;-63
2023/08/16 11:41:19;;;;;;;5.45;3.20;;;;;;;;;;5074481;28;20832;-62
2023/08/16 11:43:44;;;;;;;4.90;3.25;;;;;;;;;;5082762;28;20618;-62
2023/08/16 11:46:10;;;;;;;3.42;2.33;;;;;;;;;;5079120;28;20028;-62
2023/08/16 11:48:35;;;;;;;5.82;3.05;;;;;;;;;;5080195;28;20111;-62
2023/08/16 11:51:01;;;;;;;4.25;3.33;;;;;;;;;;5073844;28;20016;-63
2023/08/16 11:53:29;;;;;;;11.73;3.35;;;;;;;;;;5079045;28;20012;-62
2023/08/16 11:55:55;;;;;;;5.30;2.35;;;;;;;;;;5081232;28;20023;-62
2023/08/16 11:58:20;;;;;;;3.92;2.35;;;;;;;;;;5083980;28;20446;-62
2023/08/16 12:00:46;;;;;;;3.80;2.20;;;;;;;;;;5077527;28;20027;-62
2023/08/16 12:03:11;;;;;;;4.90;3.27;;;;;;;;;;5090670;28;20042;-63
2023/08/16 12:05:37;;;;;;;5.65;2.70;;;;;;;;;;5090870;28;20028;-62
2023/08/16 12:08:06;;;;;;;3.20;2.30;;;;;;;;;;5090615;28;20378;-61
2023/08/16 12:10:34;;;;;;;3.95;2.60;;;;;;;;;;5079591;28;20029;-62
2023/08/16 12:13:09;;;;;;;4.75;3.08;;;;;;;;;;5081306;28;20049;-64
2023/08/16 12:15:34;;;;;;;4.25;2.78;;;;;;;;;;5088872;28;20090;-64
2023/08/16 12:17:59;;;;;;;4.90;3.07;;;;;;;;;;5084477;28;20519;-64
2023/08/16 12:20:25;;;;;;;5.80;3.13;;;;;;;;;;5077461;28;20349;-64
2023/08/16 12:22:51;;;;;;;4.07;2.88;;;;;;;;;;5073408;28;20040;-63
2023/08/16 12:25:16;;;;;;;5.50;3.03;;;;;;;;;;5076536;28;20024;-64
2023/08/16 12:27:42;;;;;;;3.70;2.67;;;;;;;;;;5079699;28;20043;-64
2023/08/16 12:30:07;;;;;;;4.20;3.17;;;;;;;;;;5083978;28;20066;-64
2023/08/16 12:32:32;;;;;;;5.53;3.90;;;;;;;;;;5072586;28;20028;-64
2023/08/16 12:34:58;;;;;;;5.73;4.07;;;;;;;;;;5086350;28;20371;-64
2023/08/16 12:37:23;;;;;;;7.53;3.75;;;;;;;;;;5081594;28;20270;-63
2023/08/16 12:39:48;;;;;;;6.15;3.97;;;;;;;;;;5090272;28;20041;-64
2023/08/16 12:42:13;;;;;;;6.57;4.17;;;;;;;;;;5080604;28;20028;-63
2023/08/16 12:44:39;;;;;;;6.03;3.03;;;;;;;;;;5090179;28;20318;-63
2023/08/16 12:47:04;;;;;;;5.20;3.27;;;;;;;;;;5073603;28;20032;-63
2023/08/16 12:49:29;;;;;;;7.22;3.90;;;;;;;;;;5076269;28;20478;-64
2023/08/16 12:51:55;;;;;;;4.83;2.80;;;;;;;;;;5073344;28;20035;-64
2023/08/16 12:54:20;;;;;;;3.63;2.63;;;;;;;;;;5073849;28;20286;-64
2023/08/16 12:56:46;;;;;;;7.07;3.72;;;;;;;;;;5073047;28;20505;-64
2023/08/16 12:59:11;;;;;;;5.10;3.17;;;;;;;;;;5081516;28;20436;-63
2023/08/16 13:01:36;;;;;;;5.13;3.63;;;;;;;;;;5079451;28;20275;-64
2023/08/16 13:04:01;;;;;;;8.07;3.43;;;;;;;;;;5091881;28;20028;-64
2023/08/16 13:06:26;;;;;;;4.83;2.83;;;;;;;;;;5079525;28;20322;-64
2023/08/16 13:08:52;;;;;;;4.32;2.97;;;;;;;;;;5078248;28;20020;-64
2023/08/16 13:11:17;;;;;;;4.30;2.87;;;;;;;;;;5085441;28;20029;-63
2023/08/16 13:13:42;;;;;;;4.87;3.03;;;;;;;;;;5086557;28;20756;-64
2023/08/16 13:16:08;;;;;;;3.55;2.72;;;;;;;;;;5080059;28;20298;-64
2023/08/16 13:18:33;;;;;;;5.82;4.18;;;;;;;;;;5086749;28;20385;-64
2023/08/16 13:20:59;;;;;;;4.72;3.70;;;;;;;;;;5079375;28;20401;-64
2023/08/16 13:23:24;;;;;;;5.63;3.83;;;;;;;;;;5085226;28;20036;-65
2023/08/16 13:25:49;;;;;;;4.43;3.10;;;;;;;;;;5079452;28;20043;-64
2023/08/16 13:28:15;;;;;;;7.83;3.30;;;;;;;;;;5086396;28;20103;-63
2023/08/16 13:30:40;;;;;;;4.47;2.73;;;;;;;;;;5084006;28;20282;-64
2023/08/16 13:33:07;;;;;;;4.38;2.72;;;;;;;;;;5085611;28;20020;-64
2023/08/16 13:35:33;;;;;;;4.75;3.63;;;;;;;;;;5082506;28;20107;-63
2023/08/16 13:37:58;;;;;;;5.07;3.92;;;;;;;;;;5078677;28;20147;-64
2023/08/16 13:40:23;;;;;;;6.25;5.00;;;;;;;;;;5086478;28;20073;-64
2023/08/16 13:42:48;;;;;;;7.20;5.18;;;;;;;;;;5086080;28;20386;-63
2023/08/16 13:45:14;;;;;;;5.70;4.57;;;;;;;;;;5080443;28;20024;-64
2023/08/16 13:47:39;;;;;;;5.97;4.32;;;;;;;;;;5086031;28;20278;-64
2023/08/16 13:50:04;;;;;;;7.67;5.30;;;;;;;;;;5084982;28;20145;-63
2023/08/16 13:52:30;;;;;;;6.32;4.80;;;;;;;;;;5071195;28;20271;-64
2023/08/16 13:54:55;;;;;;;7.72;5.50;;;;;;;;;;5082893;28;20036;-64
2023/08/16 13:57:21;;;;;;;7.53;6.50;;;;;;;;;;5072725;28;20036;-64
2023/08/16 13:59:46;;;;;;;11.00;6.18;;;;;;;;;;5085848;28;20270;-64
2023/08/16 14:02:11;;;;;;;8.77;7.30;;;;;;;;;;5083441;28;20403;-63
2023/08/16 14:04:36;;;;;;;6.97;5.53;;;;;;;;;;5085841;28;20290;-64
2023/08/16 14:07:02;;;;;;;8.50;6.20;;;;;;;;;;5072260;28;20028;-64
2023/08/16 14:09:27;;;;;;;8.10;5.93;;;;;;;;;;5078516;28;20263;-64
2023/08/16 14:11:52;;;;;;;9.25;6.90;;;;;;;;;;5077331;28;20032;-64
2023/08/16 14:14:17;;;;;;;7.60;5.73;;;;;;;;;;5085194;28;20050;-64
2023/08/16 14:16:43;;;;;;;8.63;7.03;;;;;;;;;;5089256;28;20342;-62
2023/08/16 14:19:08;;;;;;;7.32;6.50;;;;;;;;;;5077424;28;20419;-62
2023/08/16 14:21:34;;;;;;;7.63;6.45;;;;;;;;;;5084645;28;20032;-62
2023/08/16 14:23:59;;;;;;;8.73;7.63;;;;;;;;;;5087604;28;20020;-63
2023/08/16 14:26:25;;;;;;;8.60;7.68;;;;;;;;;;5085244;28;20149;-63
2023/08/16 14:28:50;;;;;;;10.70;7.72;;;;;;;;;;5080271;28;20031;-63
2023/08/16 14:31:15;;;;;;;9.63;8.60;;;;;;;;;;5073011;28;20024;-63